x

Buzzards Bay, Ma (buzm3) Weather Station

9:00 - Fri 24th Mar 2017 All times are EDT. -4 hours from GMT.

  • Wind
    24mph, 25mph gusts
  • Luft Temp 42°f
  • Sea Pressure 1020.9mb
  • Buzzards Bay, Ma
  • Buzzards Bay, Ma

More Historic Weather Station data

Upgrade to MSW Pro to gain access to the past 30 days of data for over 8000 Wavebouys and Weather Stations around the globe.

Join Pro

Comparision Forecast

View Surf forecast
   
Fr 03/24 9:00 24 25 mph 1020.9mb 42f
8:00 23 25 mph 1020.3mb 42f
7:00 23 25 mph 1020.9mb 42f
6:00 28 30 mph 1021.1mb 42f
5:00 26 29 mph 1022.1mb 42f
4:00 29 32 mph 1023mb 41f
3:00 26 29 mph 1024.4mb 40f
2:00 22 24 mph 1027mb 40f
1:00 25 28 mph 1029.3mb 40f
12:00 26 29 mph 1030.6mb 40f
11:00 25 28 mph 1031.6mb 39f
10:00 23 24 mph 1031.6mb 38f
9:00 22 23 mph 1032.9mb 38f
8:00 15 16 mph 1033.9mb 38f
7:00 11
mph
1034.1mb 37f
6:00 7 8 mph 1033.8mb 36f
5:00 5 6 mph 1033.7mb 35f
4:00 7 8 mph 1034.5mb 35f
3:00 2 3 mph 1034.5mb 34f
2:00 8
mph
1034.6mb 34f
1:00 10 11 mph 1034.7mb 34f
12:00 14 16 mph 1034.6mb 35f
Do 03/23 11:00 16 17 mph 1035.3mb 35f
10:00 17 18 mph 1034.6mb 36f
9:00 16 18 mph 1034mb 36f
8:00 22 24 mph 1033mb 37f
7:00 18 20 mph 1032.1mb 37f
6:00 16 18 mph 1031.4mb 38f
5:00 21
mph
1031.4mb 36f
4:00 20 22 mph 1031.5mb 35f
3:00 18 22 mph 1031.6mb 33f
2:00 18 21 mph 1032.1mb 31f
1:00 17 18 mph 1032.7mb 29f
12:00 20 23 mph 1033.4mb 27f
11:00 20 24 mph 1033.8mb 25f
10:00 23 26 mph 1033.7mb 23f
9:00 22 24 mph 1033.6mb 21f
8:00 24 28 mph 1033mb 21f
7:00 28 33 mph 1031.9mb 21f
6:00 28 30 mph 1030.8mb 20f
5:00 30 36 mph 1029.9mb 20f
4:00 30 34 mph 1029.3mb 20f
3:00 26 29 mph 1029mb 20f
2:00 34 38 mph 1028.7mb 20f
1:00 37 43 mph 1027.7mb 21f
12:00 37 41 mph 1027mb 23f
Mi 03/22 11:00 38 43 mph 1025.8mb 23f
10:00 32 36 mph 1024.8mb 25f
9:00 36 41 mph 1023.6mb 26f
8:00 31 34 mph 1022.4mb 28f
7:00 38 41 mph 1020.6mb 28f
6:00 32 36 mph 1019.4mb 29f
5:00 40 46 mph 1017.6mb 30f
4:00 32 36 mph 1016.8mb 31f
3:00 34 40 mph 1016.1mb 31f
2:00 34 40 mph 1015.1mb 32f
1:00 30 33 mph 1014.3mb 34f
12:00 33 38 mph 1013.2mb 35f
11:00 33 36 mph 1012.1mb 37f
10:00 33 36 mph 1011.3mb 38f
9:00 24 28 mph 1010.7mb 39f
8:00 23 24 mph 1010.4mb 39f
7:00 23 29 mph 1010.1mb 39f
6:00 21 24 mph 1009.6mb 40f
5:00 16 17 mph 1008.8mb 40f
4:00 9 10 mph 1008.7mb 43f
3:00 5
mph
1009.4mb 43f
2:00 9 10 mph 1010.3mb 44f
1:00 15
mph
1010.3mb 43f
12:00 17
mph
1010.6mb 44f
Di 03/21 11:00 16 17 mph 1011mb 40f
10:00 20
mph
1010.5mb 41f
9:00 17
mph
1010.3mb 41f
8:00 20
mph
1010mb 41f
7:00 21
mph
1009.5mb 42f
6:00 22 23 mph 1009mb 42f
5:00 22 23 mph 1009.3mb 41f
4:00 20 22 mph 1009.9mb 40f
3:00 14
mph
1010.6mb 41f
2:00 11 13 mph 1011.3mb 40f
1:00 14 15 mph 1012.1mb 41f
12:00 15 16 mph 1012.4mb 40f
11:00 14 15 mph 1012.6mb 39f
10:00 8 9 mph 1012.6mb 40f
9:00 8
mph
1012.7mb 40f
8:00 8
mph
1012.7mb 40f
7:00 9
mph
1012.6mb 40f
6:00 14 15 mph 1012.2mb 42f
5:00 9
mph
1011.8mb 41f
4:00 14 15 mph 1011.9mb 41f
3:00 16
mph
1012.5mb 40f